createdAt,value
2022-11-06T00:01:50.192Z,1.90
2022-11-06T00:04:16.771Z,1.50
2022-11-06T00:06:49.424Z,1.60
2022-11-06T00:09:19.118Z,1.70
2022-11-06T00:53:06.019Z,1.50
2022-11-06T00:55:32.571Z,1.80
2022-11-06T01:02:14.508Z,1.50
2022-11-06T01:04:41.326Z,1.33
2022-11-06T01:07:10.698Z,1.70
2022-11-06T01:48:13.922Z,1.50
2022-11-06T01:50:43.639Z,1.40
2022-11-06T01:53:12.431Z,1.60
2022-11-06T01:55:43.014Z,1.40
2022-11-06T01:58:14.899Z,1.60
2022-11-06T02:00:57.764Z,1.40
2022-11-06T02:04:37.902Z,2.15
2022-11-06T02:07:26.395Z,1.50
2022-11-06T02:09:53.197Z,1.50
2022-11-06T02:12:45.674Z,1.30
2022-11-06T02:15:36.274Z,1.30
2022-11-06T02:18:25.330Z,1.12
2022-11-06T02:23:48.848Z,1.08
2022-11-06T02:26:53.353Z,1.30
2022-11-06T02:29:33.101Z,1.20
2022-11-06T02:32:42.971Z,1.25
2022-11-06T02:35:35.144Z,1.23
2022-11-06T02:38:07.614Z,1.20
2022-11-06T02:40:52.207Z,1.40
2022-11-06T02:43:22.067Z,1.45
2022-11-06T02:45:57.111Z,1.58
2022-11-06T02:48:29.869Z,1.40
2022-11-06T03:13:10.499Z,1.40
2022-11-06T03:16:05.933Z,1.25
2022-11-06T03:18:43.916Z,1.52
2022-11-06T03:21:19.130Z,1.50
2022-11-06T03:23:58.155Z,1.10
2022-11-06T03:29:22.410Z,1.10
2022-11-06T03:31:55.224Z,1.40
2022-11-06T03:35:03.013Z,1.27
2022-11-06T03:42:43.112Z,1.50
2022-11-06T03:51:30.480Z,1.45
2022-11-06T05:14:39.423Z,2.47
2022-11-06T05:17:05.969Z,2.30
2022-11-06T05:19:32.590Z,2.12
2022-11-06T05:22:17.658Z,2.40
2022-11-06T05:24:44.417Z,2.40
2022-11-06T05:27:10.938Z,2.10
2022-11-06T05:29:38.370Z,2.97
2022-11-06T05:32:05.185Z,2.30
2022-11-06T05:34:31.770Z,2.55
2022-11-06T05:36:58.356Z,2.47
2022-11-06T05:39:43.272Z,2.65
2022-11-06T05:42:50.468Z,2.67
2022-11-06T05:45:16.989Z,2.80
2022-11-06T05:47:44.687Z,2.45
2022-11-06T05:50:11.358Z,2.72
2022-11-06T05:52:38.249Z,3.20
2022-11-06T05:55:13.210Z,3.30
2022-11-06T05:57:41.215Z,2.42
2022-11-06T06:00:12.214Z,2.30
2022-11-06T06:02:39.041Z,2.10
2022-11-06T06:05:06.410Z,2.50
2022-11-06T06:07:34.403Z,2.90
2022-11-06T06:10:01.032Z,2.60
2022-11-06T06:36:16.462Z,2.40
2022-11-06T06:38:43.142Z,2.78
2022-11-06T06:41:12.703Z,2.40
2022-11-06T06:43:39.399Z,2.37
2022-11-06T06:46:08.393Z,2.50
2022-11-06T06:51:24.195Z,2.75
2022-11-06T06:53:51.043Z,3.00
2022-11-06T06:56:17.634Z,3.00
2022-11-06T06:58:44.456Z,2.72
2022-11-06T07:01:11.510Z,2.60
2022-11-06T07:07:35.182Z,2.65
2022-11-06T07:10:05.985Z,3.17
2022-11-06T07:29:47.226Z,3.40
2022-11-06T07:32:13.917Z,2.75
2022-11-06T07:34:40.517Z,3.40
2022-11-06T07:37:07.929Z,2.87
2022-11-06T07:39:36.260Z,3.28
2022-11-06T07:42:02.901Z,4.45
2022-11-06T07:44:30.985Z,4.28
2022-11-06T07:46:57.551Z,4.03
2022-11-06T07:49:24.114Z,6.82
2022-11-06T07:51:50.918Z,8.18
2022-11-06T07:54:17.486Z,6.43
2022-11-06T08:45:17.583Z,7.30
2022-11-06T08:47:45.403Z,7.07
2022-11-06T08:50:12.054Z,7.87
2022-11-06T08:52:46.010Z,7.97
2022-11-06T09:14:23.194Z,5.20
2022-11-06T09:16:50.037Z,5.70
2022-11-06T09:19:16.867Z,5.78
2022-11-06T09:21:43.848Z,4.30
2022-11-06T09:24:10.717Z,5.80
2022-11-06T09:26:37.732Z,5.57
2022-11-06T09:34:15.614Z,3.85
2022-11-06T09:36:42.186Z,3.87
2022-11-06T09:39:08.952Z,5.25
2022-11-06T10:00:37.136Z,3.78
2022-11-06T10:03:05.846Z,4.20
2022-11-06T10:05:47.738Z,3.30
2022-11-06T12:46:40.500Z,3.22
2022-11-06T12:49:32.641Z,3.20
2022-11-06T12:52:22.721Z,2.87
2022-11-06T12:55:26.620Z,3.30
2022-11-06T12:58:04.048Z,3.05
2022-11-06T14:00:11.989Z,6.75
2022-11-06T14:06:06.279Z,5.60
2022-11-06T14:08:55.192Z,6.03
2022-11-06T14:35:33.470Z,5.40
2022-11-06T14:38:17.554Z,5.37
2022-11-06T14:40:44.749Z,5.07
2022-11-06T14:43:26.455Z,5.75
2022-11-06T14:45:58.712Z,5.32
2022-11-06T14:53:52.601Z,4.87
2022-11-06T14:56:32.632Z,5.53
2022-11-06T14:59:07.500Z,5.10
2022-11-06T15:01:37.285Z,5.28
2022-11-06T15:04:18.704Z,6.00
2022-11-06T15:06:50.267Z,6.35
2022-11-06T15:09:22.884Z,6.80
2022-11-06T15:11:58.259Z,10.18
2022-11-06T15:14:24.800Z,9.35
2022-11-06T15:16:55.770Z,9.00
2022-11-06T15:19:27.076Z,9.30
2022-11-06T15:22:14.310Z,9.20
2022-11-06T15:24:45.459Z,9.07
2022-11-06T15:27:17.021Z,9.07
2022-11-06T15:29:46.214Z,9.73
2022-11-06T15:32:28.329Z,8.30
2022-11-06T15:35:04.997Z,8.70
2022-11-06T15:37:48.033Z,9.07
2022-11-06T15:40:27.940Z,10.07
2022-11-06T15:42:58.021Z,10.18
2022-11-06T15:45:27.749Z,9.82
2022-11-06T15:48:03.326Z,10.27
2022-11-06T15:50:32.295Z,10.35
2022-11-06T15:53:21.489Z,20.30
2022-11-06T15:55:56.972Z,28.48
2022-11-06T15:58:31.033Z,24.17
2022-11-06T16:01:02.585Z,19.60
2022-11-06T16:03:32.714Z,16.12
2022-11-06T16:06:03.322Z,15.73
2022-11-06T16:08:32.208Z,14.77
2022-11-06T16:11:00.101Z,16.05
2022-11-06T16:13:29.998Z,31.42
2022-11-06T16:16:00.620Z,43.00
2022-11-06T16:18:39.660Z,89.37
2022-11-06T16:21:13.783Z,77.10
2022-11-06T16:23:44.905Z,42.95
2022-11-06T16:26:21.454Z,44.92
2022-11-06T16:28:50.488Z,103.57
2022-11-06T16:31:20.535Z,62.97
2022-11-06T16:34:33.832Z,43.50
2022-11-06T16:37:27.999Z,43.42
2022-11-06T16:39:56.005Z,36.63
2022-11-06T16:42:22.787Z,39.83
2022-11-06T16:44:51.002Z,29.23
2022-11-06T16:47:19.706Z,32.30
2022-11-06T16:49:53.990Z,29.77
2022-11-06T16:52:28.283Z,35.75
2022-11-06T16:55:21.088Z,27.05
2022-11-06T16:57:53.031Z,20.02
2022-11-06T17:00:19.492Z,15.90
2022-11-06T17:02:55.763Z,16.50
2022-11-06T17:05:25.087Z,22.85
2022-11-06T17:08:19.017Z,42.35
2022-11-06T17:10:47.154Z,33.53
2022-11-06T17:13:14.264Z,20.60
2022-11-06T17:15:43.001Z,23.55
2022-11-06T17:18:22.305Z,18.42
2022-11-06T17:20:53.355Z,17.77
2022-11-06T17:23:20.664Z,17.42
2022-11-06T17:25:48.880Z,17.73
2022-11-06T17:28:16.539Z,17.30
2022-11-06T17:30:43.091Z,17.30
2022-11-06T17:33:09.702Z,17.15
2022-11-06T17:35:36.515Z,16.98
2022-11-06T17:38:07.256Z,15.68
2022-11-06T17:40:34.286Z,15.90
2022-11-06T17:43:00.849Z,18.85
2022-11-06T17:45:27.408Z,27.60
2022-11-06T17:47:53.960Z,25.50
2022-11-06T17:50:26.092Z,27.37
2022-11-06T17:52:52.703Z,26.50
2022-11-06T17:55:19.366Z,28.70
2022-11-06T17:57:45.891Z,32.75
2022-11-06T18:00:13.011Z,31.83
2022-11-06T18:02:59.741Z,33.72
2022-11-06T18:05:26.106Z,30.15
2022-11-06T18:07:54.305Z,31.52
2022-11-06T18:10:22.898Z,32.70
2022-11-06T18:12:52.958Z,32.13
2022-11-06T18:15:19.488Z,36.15
2022-11-06T18:17:46.015Z,41.78
2022-11-06T18:20:12.580Z,42.58
2022-11-06T18:22:41.795Z,43.67
2022-11-06T18:25:08.366Z,40.88
2022-11-06T18:27:34.898Z,55.97
2022-11-06T18:30:02.227Z,49.78
2022-11-06T18:32:28.835Z,52.28
2022-11-06T18:34:55.367Z,55.47
2022-11-06T18:37:25.620Z,58.85
2022-11-06T18:39:52.369Z,52.88
2022-11-06T18:42:18.990Z,40.75
2022-11-06T18:44:45.541Z,34.70
2022-11-06T18:47:12.071Z,33.15
2022-11-06T18:49:38.651Z,33.65
2022-11-06T18:52:05.570Z,33.42
2022-11-06T18:54:32.140Z,28.25
2022-11-06T18:56:59.023Z,24.65
2022-11-06T18:59:25.618Z,29.33
2022-11-06T19:01:53.285Z,27.33
2022-11-06T19:04:22.040Z,23.45
2022-11-06T19:06:49.315Z,26.42
2022-11-06T19:09:15.966Z,27.05
2022-11-06T19:11:42.606Z,28.40
2022-11-06T19:14:09.368Z,30.35
2022-11-06T19:16:36.449Z,30.33
2022-11-06T19:19:05.775Z,30.40
2022-11-06T19:21:33.499Z,31.92
2022-11-06T19:24:04.065Z,32.42
2022-11-06T19:26:32.696Z,30.88
2022-11-06T19:29:00.620Z,29.52
2022-11-06T19:31:33.460Z,24.48
2022-11-06T19:34:01.649Z,25.37
2022-11-06T19:36:47.060Z,25.27
2022-11-06T19:39:14.236Z,22.87
2022-11-06T19:41:40.779Z,21.85
2022-11-06T19:44:09.430Z,21.85
2022-11-06T19:46:54.680Z,21.67
2022-11-06T19:50:06.268Z,19.40
2022-11-06T19:52:50.917Z,18.67
2022-11-06T19:55:26.914Z,20.23
2022-11-06T19:57:57.900Z,21.08
2022-11-06T20:00:24.752Z,21.50
2022-11-06T20:02:51.412Z,21.83
2022-11-06T20:05:18.326Z,19.62
2022-11-06T20:07:45.066Z,19.60
2022-11-06T20:10:11.677Z,19.20
2022-11-06T20:12:38.657Z,19.35
2022-11-06T20:15:05.783Z,20.23
2022-11-06T20:17:32.326Z,19.87
2022-11-06T20:19:58.935Z,19.33
2022-11-06T20:22:25.725Z,19.70
2022-11-06T20:24:52.448Z,20.80
2022-11-06T20:27:19.106Z,22.25
2022-11-06T20:29:45.850Z,22.45
2022-11-06T20:32:17.707Z,26.73
2022-11-06T20:34:45.585Z,48.05
2022-11-06T20:37:13.432Z,34.63
2022-11-06T20:39:42.576Z,30.12
2022-11-06T20:42:09.194Z,29.40
2022-11-06T20:44:35.783Z,25.33
2022-11-06T20:47:02.386Z,21.58
2022-11-06T20:49:28.926Z,24.05
2022-11-06T20:52:13.105Z,19.33
2022-11-06T20:54:46.370Z,17.75
2022-11-06T20:57:15.065Z,18.12
2022-11-06T20:59:42.556Z,17.87
2022-11-06T21:02:34.481Z,17.70
2022-11-06T21:05:14.943Z,17.10
2022-11-06T21:07:53.850Z,16.35
2022-11-06T21:10:20.378Z,17.67
2022-11-06T21:18:24.956Z,15.98
2022-11-06T21:20:52.321Z,19.30
2022-11-06T21:23:19.272Z,19.40
2022-11-06T21:25:46.361Z,18.62
2022-11-06T21:28:12.956Z,20.40
2022-11-06T21:30:44.507Z,17.20
2022-11-06T21:33:11.418Z,17.23
2022-11-06T21:41:11.630Z,16.40
2022-11-06T21:43:52.548Z,17.10
2022-11-06T21:46:21.054Z,16.33
2022-11-06T21:48:48.322Z,17.40
2022-11-06T21:59:25.211Z,19.33
2022-11-06T22:01:51.961Z,19.23
2022-11-06T22:04:18.707Z,20.05
2022-11-06T22:06:45.354Z,21.20
2022-11-06T22:09:13.715Z,22.35
2022-11-06T22:11:52.670Z,24.45
2022-11-06T22:14:19.245Z,25.42
2022-11-06T22:16:49.328Z,26.23
2022-11-06T22:27:21.490Z,21.40
2022-11-06T22:29:48.094Z,20.45
2022-11-06T22:32:14.754Z,19.05
2022-11-06T22:34:41.306Z,18.90
2022-11-06T22:37:07.934Z,17.17
2022-11-06T22:39:34.517Z,20.45
2022-11-06T22:42:12.975Z,20.05
2022-11-06T22:44:39.553Z,18.70
2022-11-06T22:47:06.602Z,17.27
2022-11-06T22:49:33.138Z,18.62
2022-11-06T22:52:08.454Z,17.98
2022-11-06T23:14:58.579Z,20.30
2022-11-06T23:17:26.428Z,20.65
2022-11-06T23:20:17.989Z,20.52
2022-11-06T23:23:15.777Z,20.27
2022-11-06T23:26:10.358Z,20.62
2022-11-06T23:28:37.015Z,21.05
2022-11-06T23:31:08.294Z,20.20
2022-11-06T23:33:35.379Z,19.55
2022-11-06T23:36:10.214Z,19.42
2022-11-06T23:38:37.533Z,18.85
2022-11-06T23:41:42.840Z,18.77
2022-11-06T23:44:28.141Z,18.98
2022-11-06T23:47:13.398Z,19.33
2022-11-06T23:55:49.461Z,17.58
2022-11-06T23:58:15.999Z,18.35
